sensor_id;sensor_type;location;lat;lon;timestamp;P1;durP1;ratioP1;P2;durP2;ratioP2
4857;SDS011;58975;51.978;8.472;2022-11-15T00:01:08;6.32;;;4.68;;
4857;SDS011;58975;51.978;8.472;2022-11-15T00:06:05;8.43;;;5.00;;
4857;SDS011;58975;51.978;8.472;2022-11-15T00:11:02;10.98;;;5.45;;
4857;SDS011;58975;51.978;8.472;2022-11-15T00:16:00;8.15;;;5.28;;
4857;SDS011;58975;51.978;8.472;2022-11-15T00:21:02;8.38;;;4.53;;
4857;SDS011;58975;51.978;8.472;2022-11-15T00:26:01;6.18;;;4.55;;
4857;SDS011;58975;51.978;8.472;2022-11-15T00:31:05;9.43;;;4.80;;
4857;SDS011;58975;51.978;8.472;2022-11-15T00:36:06;6.43;;;4.75;;
4857;SDS011;58975;51.978;8.472;2022-11-15T00:41:05;9.43;;;4.70;;
4857;SDS011;58975;51.978;8.472;2022-11-15T00:46:05;7.78;;;4.45;;
4857;SDS011;58975;51.978;8.472;2022-11-15T00:51:02;6.35;;;3.95;;
4857;SDS011;58975;51.978;8.472;2022-11-15T00:55:58;6.70;;;3.97;;
4857;SDS011;58975;51.978;8.472;2022-11-15T01:00:54;8.05;;;4.18;;
4857;SDS011;58975;51.978;8.472;2022-11-15T01:05:51;6.63;;;4.40;;
4857;SDS011;58975;51.978;8.472;2022-11-15T01:10:47;7.97;;;3.97;;
4857;SDS011;58975;51.978;8.472;2022-11-15T01:15:44;6.53;;;4.47;;
4857;SDS011;58975;51.978;8.472;2022-11-15T01:20:41;5.35;;;4.18;;
4857;SDS011;58975;51.978;8.472;2022-11-15T01:25:38;6.05;;;3.67;;
4857;SDS011;58975;51.978;8.472;2022-11-15T01:30:35;8.70;;;4.38;;
4857;SDS011;58975;51.978;8.472;2022-11-15T01:35:32;9.07;;;4.27;;
4857;SDS011;58975;51.978;8.472;2022-11-15T01:40:28;6.22;;;3.80;;
4857;SDS011;58975;51.978;8.472;2022-11-15T01:45:25;6.90;;;4.15;;
4857;SDS011;58975;51.978;8.472;2022-11-15T01:50:23;8.63;;;5.07;;
4857;SDS011;58975;51.978;8.472;2022-11-15T01:55:26;5.68;;;3.40;;
4857;SDS011;58975;51.978;8.472;2022-11-15T02:00:24;8.10;;;5.00;;
4857;SDS011;58975;51.978;8.472;2022-11-15T02:05:20;5.93;;;3.83;;
4857;SDS011;58975;51.978;8.472;2022-11-15T02:10:18;6.40;;;4.47;;
4857;SDS011;58975;51.978;8.472;2022-11-15T02:15:16;9.95;;;3.78;;
4857;SDS011;58975;51.978;8.472;2022-11-15T02:25:39;11.25;;;4.80;;
4857;SDS011;58975;51.978;8.472;2022-11-15T02:30:49;9.43;;;4.38;;
4857;SDS011;58975;51.978;8.472;2022-11-15T02:41:04;9.40;;;5.88;;
4857;SDS011;58975;51.978;8.472;2022-11-15T02:46:10;11.07;;;5.55;;
4857;SDS011;58975;51.978;8.472;2022-11-15T02:51:13;13.15;;;5.78;;
4857;SDS011;58975;51.978;8.472;2022-11-15T02:56:11;9.13;;;5.20;;
4857;SDS011;58975;51.978;8.472;2022-11-15T03:06:40;10.20;;;6.03;;
4857;SDS011;58975;51.978;8.472;2022-11-15T03:11:56;9.55;;;5.80;;
4857;SDS011;58975;51.978;8.472;2022-11-15T03:17:14;9.13;;;5.95;;
4857;SDS011;58975;51.978;8.472;2022-11-15T03:22:15;11.75;;;6.47;;
4857;SDS011;58975;51.978;8.472;2022-11-15T03:27:15;15.02;;;7.32;;
4857;SDS011;58975;51.978;8.472;2022-11-15T03:32:20;11.05;;;6.35;;
4857;SDS011;58975;51.978;8.472;2022-11-15T03:37:22;12.32;;;6.88;;
4857;SDS011;58975;51.978;8.472;2022-11-15T03:42:27;10.73;;;7.00;;
4857;SDS011;58975;51.978;8.472;2022-11-15T03:47:29;10.32;;;7.15;;
4857;SDS011;58975;51.978;8.472;2022-11-15T03:52:31;9.63;;;6.25;;
4857;SDS011;58975;51.978;8.472;2022-11-15T03:57:30;14.50;;;7.05;;
4857;SDS011;58975;51.978;8.472;2022-11-15T04:02:26;10.55;;;6.80;;
4857;SDS011;58975;51.978;8.472;2022-11-15T04:07:22;12.18;;;7.25;;
4857;SDS011;58975;51.978;8.472;2022-11-15T04:12:19;14.00;;;6.80;;
4857;SDS011;58975;51.978;8.472;2022-11-15T04:17:26;14.77;;;7.90;;
4857;SDS011;58975;51.978;8.472;2022-11-15T04:22:23;12.02;;;7.55;;
4857;SDS011;58975;51.978;8.472;2022-11-15T04:27:38;11.98;;;6.70;;
4857;SDS011;58975;51.978;8.472;2022-11-15T04:32:34;12.93;;;7.57;;
4857;SDS011;58975;51.978;8.472;2022-11-15T04:37:30;17.67;;;7.75;;
4857;SDS011;58975;51.978;8.472;2022-11-15T04:42:27;13.85;;;7.57;;
4857;SDS011;58975;51.978;8.472;2022-11-15T04:47:23;12.38;;;7.00;;
4857;SDS011;58975;51.978;8.472;2022-11-15T04:52:19;15.45;;;7.38;;
4857;SDS011;58975;51.978;8.472;2022-11-15T04:57:16;16.27;;;8.50;;
4857;SDS011;58975;51.978;8.472;2022-11-15T05:02:12;10.75;;;7.63;;
4857;SDS011;58975;51.978;8.472;2022-11-15T05:07:08;13.82;;;7.85;;
4857;SDS011;58975;51.978;8.472;2022-11-15T05:12:05;16.95;;;8.13;;
4857;SDS011;58975;51.978;8.472;2022-11-15T05:17:01;11.25;;;7.75;;
4857;SDS011;58975;51.978;8.472;2022-11-15T05:21:58;13.10;;;7.85;;
4857;SDS011;58975;51.978;8.472;2022-11-15T05:26:54;12.82;;;6.80;;
4857;SDS011;58975;51.978;8.472;2022-11-15T05:31:51;15.95;;;7.80;;
4857;SDS011;58975;51.978;8.472;2022-11-15T05:36:47;13.98;;;7.30;;
4857;SDS011;58975;51.978;8.472;2022-11-15T05:41:48;14.73;;;8.23;;
4857;SDS011;58975;51.978;8.472;2022-11-15T05:46:50;12.13;;;8.02;;
4857;SDS011;58975;51.978;8.472;2022-11-15T05:51:49;12.55;;;7.40;;
4857;SDS011;58975;51.978;8.472;2022-11-15T05:56:48;16.67;;;8.15;;
4857;SDS011;58975;51.978;8.472;2022-11-15T06:01:45;13.18;;;7.90;;
4857;SDS011;58975;51.978;8.472;2022-11-15T06:06:42;10.98;;;7.03;;
4857;SDS011;58975;51.978;8.472;2022-11-15T06:11:38;16.05;;;8.10;;
4857;SDS011;58975;51.978;8.472;2022-11-15T06:16:34;12.90;;;7.45;;
4857;SDS011;58975;51.978;8.472;2022-11-15T06:21:31;14.52;;;7.53;;
4857;SDS011;58975;51.978;8.472;2022-11-15T06:26:27;9.70;;;6.78;;
4857;SDS011;58975;51.978;8.472;2022-11-15T06:31:24;11.52;;;6.50;;
4857;SDS011;58975;51.978;8.472;2022-11-15T06:36:20;10.82;;;6.60;;
4857;SDS011;58975;51.978;8.472;2022-11-15T06:41:17;11.55;;;6.78;;
4857;SDS011;58975;51.978;8.472;2022-11-15T06:46:14;10.27;;;6.22;;
4857;SDS011;58975;51.978;8.472;2022-11-15T06:51:10;10.57;;;7.05;;
4857;SDS011;58975;51.978;8.472;2022-11-15T06:56:07;10.52;;;6.55;;
4857;SDS011;58975;51.978;8.472;2022-11-15T07:01:04;8.93;;;6.93;;
4857;SDS011;58975;51.978;8.472;2022-11-15T07:06:03;10.68;;;6.10;;
4857;SDS011;58975;51.978;8.472;2022-11-15T07:11:03;10.90;;;6.13;;
4857;SDS011;58975;51.978;8.472;2022-11-15T07:16:03;9.43;;;6.05;;
4857;SDS011;58975;51.978;8.472;2022-11-15T07:21:04;7.90;;;5.63;;
4857;SDS011;58975;51.978;8.472;2022-11-15T07:26:02;6.22;;;4.47;;
4857;SDS011;58975;51.978;8.472;2022-11-15T07:31:01;9.88;;;6.15;;
4857;SDS011;58975;51.978;8.472;2022-11-15T07:36:03;10.20;;;5.18;;
4857;SDS011;58975;51.978;8.472;2022-11-15T07:41:03;11.35;;;5.00;;
4857;SDS011;58975;51.978;8.472;2022-11-15T07:46:07;9.70;;;5.78;;
4857;SDS011;58975;51.978;8.472;2022-11-15T07:51:09;6.90;;;4.88;;
4857;SDS011;58975;51.978;8.472;2022-11-15T07:56:09;7.05;;;5.45;;
4857;SDS011;58975;51.978;8.472;2022-11-15T08:01:07;8.38;;;4.75;;
4857;SDS011;58975;51.978;8.472;2022-11-15T08:06:05;16.90;;;5.03;;
4857;SDS011;58975;51.978;8.472;2022-11-15T08:11:01;8.82;;;4.68;;
4857;SDS011;58975;51.978;8.472;2022-11-15T08:15:59;9.90;;;5.00;;
4857;SDS011;58975;51.978;8.472;2022-11-15T08:21:00;6.95;;;4.75;;
4857;SDS011;58975;51.978;8.472;2022-11-15T08:26:01;6.70;;;4.45;;
4857;SDS011;58975;51.978;8.472;2022-11-15T08:30:59;5.95;;;4.20;;
4857;SDS011;58975;51.978;8.472;2022-11-15T08:35:56;6.43;;;4.53;;
4857;SDS011;58975;51.978;8.472;2022-11-15T08:40:53;6.10;;;3.10;;
4857;SDS011;58975;51.978;8.472;2022-11-15T08:45:57;4.43;;;3.13;;
4857;SDS011;58975;51.978;8.472;2022-11-15T08:50:55;4.63;;;3.00;;
4857;SDS011;58975;51.978;8.472;2022-11-15T08:55:52;3.43;;;2.30;;
4857;SDS011;58975;51.978;8.472;2022-11-15T09:00:48;3.67;;;2.67;;
4857;SDS011;58975;51.978;8.472;2022-11-15T09:05:45;3.30;;;2.45;;
4857;SDS011;58975;51.978;8.472;2022-11-15T09:10:41;5.28;;;2.53;;
4857;SDS011;58975;51.978;8.472;2022-11-15T09:15:38;4.97;;;2.53;;
4857;SDS011;58975;51.978;8.472;2022-11-15T09:20:34;2.88;;;1.90;;
4857;SDS011;58975;51.978;8.472;2022-11-15T09:25:30;3.20;;;1.40;;
4857;SDS011;58975;51.978;8.472;2022-11-15T09:30:27;3.22;;;1.70;;
4857;SDS011;58975;51.978;8.472;2022-11-15T09:35:23;2.80;;;1.63;;
4857;SDS011;58975;51.978;8.472;2022-11-15T09:40:20;2.25;;;1.48;;
4857;SDS011;58975;51.978;8.472;2022-11-15T09:50:27;4.53;;;1.52;;
4857;SDS011;58975;51.978;8.472;2022-11-15T09:55:40;2.67;;;1.33;;
4857;SDS011;58975;51.978;8.472;2022-11-15T10:00:47;3.97;;;1.20;;
4857;SDS011;58975;51.978;8.472;2022-11-15T10:05:49;3.28;;;1.63;;
4857;SDS011;58975;51.978;8.472;2022-11-15T10:10:49;2.25;;;1.40;;
4857;SDS011;58975;51.978;8.472;2022-11-15T10:21:34;1.55;;;0.82;;
4857;SDS011;58975;51.978;8.472;2022-11-15T10:26:37;2.60;;;1.02;;
4857;SDS011;58975;51.978;8.472;2022-11-15T10:31:33;1.25;;;0.77;;
4857;SDS011;58975;51.978;8.472;2022-11-15T10:36:30;2.25;;;0.95;;
4857;SDS011;58975;51.978;8.472;2022-11-15T10:46:23;0.80;;;0.65;;
4857;SDS011;58975;51.978;8.472;2022-11-15T10:51:41;2.28;;;0.80;;
4857;SDS011;58975;51.978;8.472;2022-11-15T10:56:43;2.30;;;0.60;;
4857;SDS011;58975;51.978;8.472;2022-11-15T11:01:47;1.00;;;0.77;;
4857;SDS011;58975;51.978;8.472;2022-11-15T11:06:57;1.75;;;0.80;;
4857;SDS011;58975;51.978;8.472;2022-11-15T11:11:55;1.73;;;1.10;;
4857;SDS011;58975;51.978;8.472;2022-11-15T11:16:53;1.42;;;0.80;;
4857;SDS011;58975;51.978;8.472;2022-11-15T11:37:41;3.17;;;1.20;;
4857;SDS011;58975;51.978;8.472;2022-11-15T11:48:20;1.15;;;0.90;;
4857;SDS011;58975;51.978;8.472;2022-11-15T11:53:26;0.77;;;0.77;;
4857;SDS011;58975;51.978;8.472;2022-11-15T12:03:39;1.92;;;1.27;;
4857;SDS011;58975;51.978;8.472;2022-11-15T12:09:03;1.63;;;1.10;;
4857;SDS011;58975;51.978;8.472;2022-11-15T12:14:10;1.33;;;1.00;;
4857;SDS011;58975;51.978;8.472;2022-11-15T12:19:18;1.05;;;1.00;;
4857;SDS011;58975;51.978;8.472;2022-11-15T12:24:19;5.30;;;1.08;;
4857;SDS011;58975;51.978;8.472;2022-11-15T12:29:25;3.33;;;1.05;;
4857;SDS011;58975;51.978;8.472;2022-11-15T12:34:39;3.55;;;1.00;;
4857;SDS011;58975;51.978;8.472;2022-11-15T12:40:03;1.30;;;1.20;;
4857;SDS011;58975;51.978;8.472;2022-11-15T12:45:24;3.15;;;0.82;;
4857;SDS011;58975;51.978;8.472;2022-11-15T12:55:44;4.70;;;1.40;;
4857;SDS011;58975;51.978;8.472;2022-11-15T13:06:43;0.65;;;0.65;;
4857;SDS011;58975;51.978;8.472;2022-11-15T13:11:52;0.88;;;0.73;;
4857;SDS011;58975;51.978;8.472;2022-11-15T13:16:49;1.83;;;0.60;;
4857;SDS011;58975;51.978;8.472;2022-11-15T13:21:55;1.40;;;0.90;;
4857;SDS011;58975;51.978;8.472;2022-11-15T13:27:14;2.25;;;0.60;;
4857;SDS011;58975;51.978;8.472;2022-11-15T13:32:14;1.75;;;0.75;;
4857;SDS011;58975;51.978;8.472;2022-11-15T13:37:27;3.63;;;0.70;;
4857;SDS011;58975;51.978;8.472;2022-11-15T13:42:25;0.63;;;0.60;;
4857;SDS011;58975;51.978;8.472;2022-11-15T13:47:25;3.78;;;0.80;;
4857;SDS011;58975;51.978;8.472;2022-11-15T13:52:24;2.80;;;0.70;;
4857;SDS011;58975;51.978;8.472;2022-11-15T13:57:28;5.28;;;0.95;;
4857;SDS011;58975;51.978;8.472;2022-11-15T14:02:34;4.38;;;1.00;;
4857;SDS011;58975;51.978;8.472;2022-11-15T14:07:32;2.92;;;0.70;;
4857;SDS011;58975;51.978;8.472;2022-11-15T14:12:39;1.47;;;0.77;;
4857;SDS011;58975;51.978;8.472;2022-11-15T14:17:46;1.43;;;0.53;;
4857;SDS011;58975;51.978;8.472;2022-11-15T14:22:55;1.02;;;0.68;;
4857;SDS011;58975;51.978;8.472;2022-11-15T14:28:13;1.00;;;0.80;;
4857;SDS011;58975;51.978;8.472;2022-11-15T14:33:27;3.28;;;0.80;;
4857;SDS011;58975;51.978;8.472;2022-11-15T14:38:26;1.10;;;0.90;;
4857;SDS011;58975;51.978;8.472;2022-11-15T14:43:22;1.42;;;0.80;;
4857;SDS011;58975;51.978;8.472;2022-11-15T14:48:19;2.97;;;0.90;;
4857;SDS011;58975;51.978;8.472;2022-11-15T14:53:16;4.75;;;1.02;;
4857;SDS011;58975;51.978;8.472;2022-11-15T15:03:10;3.70;;;1.20;;
4857;SDS011;58975;51.978;8.472;2022-11-15T15:08:07;4.72;;;1.23;;
4857;SDS011;58975;51.978;8.472;2022-11-15T15:13:04;2.47;;;1.92;;
4857;SDS011;58975;51.978;8.472;2022-11-15T15:18:02;5.55;;;1.33;;
4857;SDS011;58975;51.978;8.472;2022-11-15T15:23:00;4.70;;;2.08;;
4857;SDS011;58975;51.978;8.472;2022-11-15T15:27:57;2.78;;;1.50;;
4857;SDS011;58975;51.978;8.472;2022-11-15T15:32:53;3.90;;;1.40;;
4857;SDS011;58975;51.978;8.472;2022-11-15T15:37:50;2.35;;;1.60;;
4857;SDS011;58975;51.978;8.472;2022-11-15T15:42:47;2.03;;;1.40;;
4857;SDS011;58975;51.978;8.472;2022-11-15T15:47:45;2.53;;;1.50;;
4857;SDS011;58975;51.978;8.472;2022-11-15T15:52:42;2.27;;;1.53;;
4857;SDS011;58975;51.978;8.472;2022-11-15T15:57:38;6.78;;;1.42;;
4857;SDS011;58975;51.978;8.472;2022-11-15T16:02:34;2.28;;;1.60;;
4857;SDS011;58975;51.978;8.472;2022-11-15T16:07:35;4.78;;;1.25;;
4857;SDS011;58975;51.978;8.472;2022-11-15T16:12:33;1.90;;;1.23;;
4857;SDS011;58975;51.978;8.472;2022-11-15T16:17:31;4.85;;;2.03;;
4857;SDS011;58975;51.978;8.472;2022-11-15T16:22:31;4.53;;;1.30;;
4857;SDS011;58975;51.978;8.472;2022-11-15T16:27:27;4.22;;;1.77;;
4857;SDS011;58975;51.978;8.472;2022-11-15T16:32:24;1.80;;;1.23;;
4857;SDS011;58975;51.978;8.472;2022-11-15T16:37:23;2.95;;;1.20;;
4857;SDS011;58975;51.978;8.472;2022-11-15T16:42:20;4.68;;;1.40;;
4857;SDS011;58975;51.978;8.472;2022-11-15T16:47:17;3.58;;;1.70;;
4857;SDS011;58975;51.978;8.472;2022-11-15T16:52:17;2.55;;;1.45;;
4857;SDS011;58975;51.978;8.472;2022-11-15T16:57:16;1.70;;;1.25;;
4857;SDS011;58975;51.978;8.472;2022-11-15T17:02:13;3.30;;;1.35;;
4857;SDS011;58975;51.978;8.472;2022-11-15T17:07:10;3.40;;;1.42;;
4857;SDS011;58975;51.978;8.472;2022-11-15T17:12:06;1.90;;;1.20;;
4857;SDS011;58975;51.978;8.472;2022-11-15T17:17:04;1.67;;;1.30;;
4857;SDS011;58975;51.978;8.472;2022-11-15T17:22:03;1.77;;;1.20;;
4857;SDS011;58975;51.978;8.472;2022-11-15T17:27:00;5.20;;;1.52;;
4857;SDS011;58975;51.978;8.472;2022-11-15T17:31:56;3.65;;;1.23;;
4857;SDS011;58975;51.978;8.472;2022-11-15T17:36:52;2.58;;;1.10;;
4857;SDS011;58975;51.978;8.472;2022-11-15T17:41:50;4.07;;;1.63;;
4857;SDS011;58975;51.978;8.472;2022-11-15T17:46:46;4.70;;;1.87;;
4857;SDS011;58975;51.978;8.472;2022-11-15T17:51:43;1.48;;;1.38;;
4857;SDS011;58975;51.978;8.472;2022-11-15T17:56:45;1.67;;;1.25;;
4857;SDS011;58975;51.978;8.472;2022-11-15T18:01:41;2.22;;;1.40;;
4857;SDS011;58975;51.978;8.472;2022-11-15T18:06:37;1.40;;;1.17;;
4857;SDS011;58975;51.978;8.472;2022-11-15T18:11:35;2.42;;;1.15;;
4857;SDS011;58975;51.978;8.472;2022-11-15T18:16:35;2.45;;;1.30;;
4857;SDS011;58975;51.978;8.472;2022-11-15T18:26:29;1.23;;;1.08;;
4857;SDS011;58975;51.978;8.472;2022-11-15T18:31:26;3.85;;;1.20;;
4857;SDS011;58975;51.978;8.472;2022-11-15T18:41:22;2.47;;;1.33;;
4857;SDS011;58975;51.978;8.472;2022-11-15T18:46:24;2.75;;;1.70;;
4857;SDS011;58975;51.978;8.472;2022-11-15T18:51:22;2.20;;;1.50;;
4857;SDS011;58975;51.978;8.472;2022-11-15T18:56:20;2.45;;;1.58;;
4857;SDS011;58975;51.978;8.472;2022-11-15T19:01:19;2.17;;;1.13;;
4857;SDS011;58975;51.978;8.472;2022-11-15T19:06:24;1.63;;;1.13;;
4857;SDS011;58975;51.978;8.472;2022-11-15T19:11:28;4.13;;;1.42;;
4857;SDS011;58975;51.978;8.472;2022-11-15T19:16:26;2.67;;;1.50;;
4857;SDS011;58975;51.978;8.472;2022-11-15T19:21:23;2.75;;;1.30;;
4857;SDS011;58975;51.978;8.472;2022-11-15T19:26:21;3.72;;;1.20;;
4857;SDS011;58975;51.978;8.472;2022-11-15T19:31:22;4.20;;;1.40;;
4857;SDS011;58975;51.978;8.472;2022-11-15T19:36:23;1.25;;;1.10;;
4857;SDS011;58975;51.978;8.472;2022-11-15T19:41:24;2.05;;;1.20;;
4857;SDS011;58975;51.978;8.472;2022-11-15T19:46:22;1.55;;;1.42;;
4857;SDS011;58975;51.978;8.472;2022-11-15T19:51:19;2.20;;;1.20;;
4857;SDS011;58975;51.978;8.472;2022-11-15T19:56:17;1.88;;;1.30;;
4857;SDS011;58975;51.978;8.472;2022-11-15T20:01:16;2.27;;;1.40;;
4857;SDS011;58975;51.978;8.472;2022-11-15T20:06:17;2.85;;;1.40;;
4857;SDS011;58975;51.978;8.472;2022-11-15T20:11:15;2.33;;;1.67;;
4857;SDS011;58975;51.978;8.472;2022-11-15T20:16:16;2.60;;;1.50;;
4857;SDS011;58975;51.978;8.472;2022-11-15T20:21:16;3.17;;;1.58;;
4857;SDS011;58975;51.978;8.472;2022-11-15T20:26:12;2.13;;;1.45;;
4857;SDS011;58975;51.978;8.472;2022-11-15T20:31:10;5.45;;;1.73;;
4857;SDS011;58975;51.978;8.472;2022-11-15T20:36:11;1.50;;;1.33;;
4857;SDS011;58975;51.978;8.472;2022-11-15T20:41:10;3.72;;;1.98;;
4857;SDS011;58975;51.978;8.472;2022-11-15T20:46:08;1.63;;;1.40;;
4857;SDS011;58975;51.978;8.472;2022-11-15T20:56:06;1.95;;;1.50;;
4857;SDS011;58975;51.978;8.472;2022-11-15T21:01:05;3.10;;;1.13;;
4857;SDS011;58975;51.978;8.472;2022-11-15T21:06:03;2.08;;;1.45;;
4857;SDS011;58975;51.978;8.472;2022-11-15T21:11:00;2.90;;;1.55;;
4857;SDS011;58975;51.978;8.472;2022-11-15T21:16:15;3.55;;;1.65;;
4857;SDS011;58975;51.978;8.472;2022-11-15T21:21:12;2.47;;;1.80;;
4857;SDS011;58975;51.978;8.472;2022-11-15T21:26:10;5.03;;;1.60;;
4857;SDS011;58975;51.978;8.472;2022-11-15T21:31:07;2.05;;;1.85;;
4857;SDS011;58975;51.978;8.472;2022-11-15T21:36:04;2.37;;;1.47;;
4857;SDS011;58975;51.978;8.472;2022-11-15T21:41:03;2.72;;;1.75;;
4857;SDS011;58975;51.978;8.472;2022-11-15T21:46:01;2.17;;;1.75;;
4857;SDS011;58975;51.978;8.472;2022-11-15T21:51:03;1.60;;;1.40;;
4857;SDS011;58975;51.978;8.472;2022-11-15T21:56:01;2.03;;;1.58;;
4857;SDS011;58975;51.978;8.472;2022-11-15T22:00:58;1.92;;;1.30;;
4857;SDS011;58975;51.978;8.472;2022-11-15T22:06:13;1.95;;;1.42;;
4857;SDS011;58975;51.978;8.472;2022-11-15T22:11:13;4.03;;;1.40;;
4857;SDS011;58975;51.978;8.472;2022-11-15T22:16:10;3.83;;;1.75;;
4857;SDS011;58975;51.978;8.472;2022-11-15T22:21:10;2.08;;;1.50;;
4857;SDS011;58975;51.978;8.472;2022-11-15T22:26:17;2.80;;;1.42;;
4857;SDS011;58975;51.978;8.472;2022-11-15T22:31:19;3.72;;;1.83;;
4857;SDS011;58975;51.978;8.472;2022-11-15T22:36:15;2.10;;;1.65;;
4857;SDS011;58975;51.978;8.472;2022-11-15T22:41:12;7.10;;;2.13;;
4857;SDS011;58975;51.978;8.472;2022-11-15T22:46:08;2.28;;;1.85;;
4857;SDS011;58975;51.978;8.472;2022-11-15T22:51:05;2.60;;;1.80;;
4857;SDS011;58975;51.978;8.472;2022-11-15T22:56:03;2.72;;;2.00;;
4857;SDS011;58975;51.978;8.472;2022-11-15T23:01:02;6.68;;;2.20;;
4857;SDS011;58975;51.978;8.472;2022-11-15T23:06:03;5.25;;;1.80;;
4857;SDS011;58975;51.978;8.472;2022-11-15T23:11:02;3.65;;;2.53;;
4857;SDS011;58975;51.978;8.472;2022-11-15T23:16:18;6.82;;;2.60;;
4857;SDS011;58975;51.978;8.472;2022-11-15T23:21:25;2.20;;;2.00;;
4857;SDS011;58975;51.978;8.472;2022-11-15T23:26:51;5.28;;;2.38;;
4857;SDS011;58975;51.978;8.472;2022-11-15T23:31:53;6.68;;;2.00;;
4857;SDS011;58975;51.978;8.472;2022-11-15T23:37:10;4.90;;;2.92;;
4857;SDS011;58975;51.978;8.472;2022-11-15T23:42:08;2.65;;;2.38;;
4857;SDS011;58975;51.978;8.472;2022-11-15T23:47:15;5.07;;;2.67;;
4857;SDS011;58975;51.978;8.472;2022-11-15T23:52:14;3.83;;;2.80;;
4857;SDS011;58975;51.978;8.472;2022-11-15T23:57:12;4.87;;;2.83;;
